Map

Track Data

SID SEASON NUMBER BASIN SUBBASIN NAME ISO_TIME NATURE LAT LON WMO_WIND WMO_PRES WMO_AGENCY TRACK_TYPE DIST2LAND LANDFALL IFLAG USA_AGENCY USA_ATCF_ID USA_LAT USA_LON USA_RECORD USA_STATUS USA_WIND USA_PRES USA_SSHS USA_R34_NE USA_R34_SE USA_R34_SW USA_R34_NW USA_R50_NE USA_R50_SE USA_R50_SW USA_R50_NW USA_R64_NE USA_R64_SE USA_R64_SW USA_R64_NW USA_POCI USA_ROCI USA_RMW USA_EYE TOKYO_LAT TOKYO_LON TOKYO_GRADE TOKYO_WIND TOKYO_PRES TOKYO_R50_DIR TOKYO_R50_LONG TOKYO_R50_SHORT TOKYO_R30_DIR TOKYO_R30_LONG TOKYO_R30_SHORT TOKYO_LAND CMA_LAT CMA_LON CMA_CAT CMA_WIND CMA_PRES HKO_LAT HKO_LON HKO_CAT HKO_WIND HKO_PRES NEWDELHI_LAT NEWDELHI_LON NEWDELHI_GRADE NEWDELHI_WIND NEWDELHI_PRES NEWDELHI_CI NEWDELHI_DP NEWDELHI_POCI REUNION_LAT REUNION_LON REUNION_TYPE REUNION_WIND REUNION_PRES REUNION_TNUM REUNION_CI REUNION_RMW REUNION_R34_NE REUNION_R34_SE REUNION_R34_SW REUNION_R34_NW REUNION_R50_NE REUNION_R50_SE REUNION_R50_SW REUNION_R50_NW REUNION_R64_NE REUNION_R64_SE REUNION_R64_SW REUNION_R64_NW BOM_LAT BOM_LON BOM_TYPE BOM_WIND BOM_PRES BOM_TNUM BOM_CI BOM_RMW BOM_R34_NE BOM_R34_SE BOM_R34_SW BOM_R34_NW BOM_R50_NE BOM_R50_SE BOM_R50_SW BOM_R50_NW BOM_R64_NE BOM_R64_SE BOM_R64_SW BOM_R64_NW BOM_ROCI BOM_POCI BOM_EYE BOM_POS_METHOD BOM_PRES_METHOD NADI_LAT NADI_LON NADI_CAT NADI_WIND NADI_PRES WELLINGTON_LAT WELLINGTON_LON WELLINGTON_WIND WELLINGTON_PRES DS824_LAT DS824_LON DS824_STAGE DS824_WIND DS824_PRES TD9636_LAT TD9636_LON TD9636_STAGE TD9636_WIND TD9636_PRES TD9635_LAT TD9635_LON TD9635_WIND TD9635_PRES TD9635_ROCI NEUMANN_LAT NEUMANN_LON NEUMANN_CLASS NEUMANN_WIND NEUMANN_PRES MLC_LAT MLC_LON MLC_CLASS MLC_WIND MLC_PRES USA_GUST BOM_GUST BOM_GUST_PER REUNION_GUST REUNION_GUST_PER USA_SEAHGT USA_SEARAD_NE USA_SEARAD_SE USA_SEARAD_SW USA_SEARAD_NW STORM_SPEED STORM_DIR
2020348S14173 2021 50 SP MM YASA 2020-12-12 12:00:00 NR -13.7000 172.900 PROVISIONAL 620 610 O_____________ tcvitals SP052020 -13.7000 172.900 35 1000 0 95 35 50 110 1005 190 70 5 177
2020348S14173 2021 50 SP MM YASA 2020-12-12 15:00:00 NR -13.9650 172.908 PROVISIONAL 605 598 P_____________ SP052020 -13.9650 172.908 35 999 0 97 55 55 110 1004 182 70 6 171
2020348S14173 2021 50 SP MM YASA 2020-12-12 18:00:00 NR -14.3000 173.000 PROVISIONAL 598 553 O_____________ tcvitals SP052020 -14.3000 173.000 35 998 0 100 75 60 110 1003 175 70 8 160
2020348S14173 2021 50 SP MM YASA 2020-12-12 21:00:00 NR -14.7300 173.202 PROVISIONAL 553 519 P_____________ SP052020 -14.7300 173.202 37 998 0 105 70 100 1004 202 60 9 160
2020348S14173 2021 50 SP MM YASA 2020-12-13 00:00:00 NR -15.1000 173.300 PROVISIONAL 519 513 O_____________ tcvitals SP052020 -15.1000 173.300 39 998 0 110 65 90 1005 230 50 5 196
2020348S14173 2021 50 SP MM YASA 2020-12-13 03:00:00 NR -15.2376 173.053 PROVISIONAL 531 531 P_____________ SP052020 -15.2376 173.053 42 995 0 110 65 90 1004 190 50 6 251
2020348S14173 2021 50 SP MM YASA 2020-12-13 06:00:00 NR -15.3000 172.700 PROVISIONAL 536 512 O_____________ tcvitals SP052020 -15.3000 172.700 45 993 0 110 65 45 90 1003 150 50 6 249
2020348S14173 2021 50 SP MM YASA 2020-12-13 09:00:00 NR -15.4575 172.455 PROVISIONAL 510 487 P_____________ SP052020 -15.4575 172.455 45 994 0 110 72 45 65 1004 152 37 5 232
2020348S14173 2021 50 SP MM YASA 2020-12-13 12:00:00 NR -15.6000 172.300 PROVISIONAL 487 485 O_____________ tcvitals SP052020 -15.6000 172.300 45 995 0 110 80 45 40 1005 155 25 3 215
2020348S14173 2021 50 SP MM YASA 2020-12-13 15:00:00 NR -15.6649 172.300 PROVISIONAL 485 485 P_____________ SP052020 -15.6649 172.300 49 992 0 107 80 72 55 1005 165 27 1 0
2020348S14173 2021 50 SP MM YASA 2020-12-13 18:00:00 NR -15.7000 172.300 PROVISIONAL 485 463 O_____________ tcvitals SP052020 -15.7000 172.300 54 990 0 105 80 100 70 1006 175 30 2 242
2020348S14173 2021 50 SP MM YASA 2020-12-13 21:00:00 NR -15.7576 172.115 PROVISIONAL 463 441 P_____________ SP052020 -15.7576 172.115 57 988 0 105 87 87 60 1006 180 30 4 255
2020348S14173 2021 50 SP MM YASA 2020-12-14 00:00:00 NR -15.8000 171.900 PROVISIONAL 441 431 O_____________ tcvitals SP052020 -15.8000 171.900 60 987 0 105 95 75 50 1006 185 30 3 259
2020348S14173 2021 50 SP MM YASA 2020-12-14 03:00:00 NR -15.8225 171.777 PROVISIONAL 431 420 P_____________ SP052020 -15.8225 171.777 62 984 0 105 92 75 62 1005 187 25 2 270
2020348S14173 2021 50 SP MM YASA 2020-12-14 06:00:00 NR -15.8000 171.700 PROVISIONAL 420 410 O_____________ tcvitals SP052020 -15.8000 171.700 64 981 1 105 90 75 75 1004 190 20 2 302
2020348S14173 2021 50 SP MM YASA 2020-12-14 09:00:00 NR -15.7150 171.597 PROVISIONAL 411 411 P_____________ SP052020 -15.7150 171.597 64 982 1 105 90 75 75 1005 195 20 2 333
2020348S14173 2021 50 SP MM YASA 2020-12-14 12:00:00 NR -15.6000 171.600 PROVISIONAL 413 413 O_____________ tcvitals SP052020 -15.6000 171.600 64 983 1 105 90 75 75 1006 200 20 3 47
2020348S14173 2021 50 SP MM YASA 2020-12-14 15:00:00 NR -15.5151 171.820 PROVISIONAL 437 437 P_____________ SP052020 -15.5151 171.820 67 980 1 120 102 92 95 1006 200 20 5 67
2020348S14173 2021 50 SP MM YASA 2020-12-14 18:00:00 NR -15.4000 172.100 PROVISIONAL 471 471 O_____________ tcvitals SP052020 -15.4000 172.100 70 978 1 135 115 110 115 1006 200 20 5 52
2020348S14173 2021 50 SP MM YASA 2020-12-14 21:00:00 NR -15.1924 172.242 PROVISIONAL 486 486 P_____________ SP052020 -15.1924 172.242 77 973 1 132 115 105 112 1006 200 16 5 36
2020348S14173 2021 50 SP MM YASA 2020-12-15 00:00:00 NR -15.0000 172.400 PROVISIONAL 513 513 O_____________ tcvitals SP052020 -15.0000 172.400 84 968 2 130 115 100 110 1006 200 12 5 60
2020348S14173 2021 50 SP MM YASA 2020-12-15 03:00:00 NR -14.9276 172.707 PROVISIONAL 547 547 P_____________ SP052020 -14.9276 172.707 94 958 2 132 112 107 110 1004 200 12 6 80
2020348S14173 2021 50 SP MM YASA 2020-12-15 06:00:00 NR -14.9000 173.000 PROVISIONAL 558 549 O_____________ tcvitals SP052020 -14.9000 173.000 105 949 3 135 110 115 110 1003 200 12 4 79
2020348S14173 2021 50 SP MM YASA 2020-12-15 09:00:00 NR -14.8499 173.122 PROVISIONAL 555 547 P_____________ SP052020 -14.8499 173.122 107 947 3 122 107 110 107 1004 207 12 2 63
2020348S14173 2021 50 SP MM YASA 2020-12-15 12:00:00 NR -14.8000 173.200 PROVISIONAL 547 538 O_____________ tcvitals SP052020 -14.8000 173.200 109 946 3 110 105 105 105 1005 215 12 2 62
2020348S14173 2021 50 SP MM YASA 2020-12-15 15:00:00 NR -14.7499 173.320 PROVISIONAL 545 528 P_____________ SP052020 -14.7499 173.320 121 932 4 110 105 105 105 1004 215 13 3 71
2020348S14173 2021 50 SP MM YASA 2020-12-15 18:00:00 NR -14.7000 173.500 PROVISIONAL 528 518 O_____________ tcvitals SP052020 -14.7000 173.500 134 919 4 110 105 105 105 1003 215 14 4 72
2020348S14173 2021 50 SP MM YASA 2020-12-15 21:00:00 NR -14.6124 173.755 PROVISIONAL 510 486 P_____________ SP052020 -14.6124 173.755 136 916 4 125 112 110 115 1003 215 17 6 80
2020348S14173 2021 50 SP MM YASA 2020-12-16 00:00:00 NR -14.6000 174.100 PROVISIONAL 486 440 O_____________ tcvitals SP052020 -14.6000 174.100 138 914 5 140 120 115 126 1003 215 20 8 102
2020348S14173 2021 50 SP MM YASA 2020-12-16 03:00:00 NR -14.7776 174.550 PROVISIONAL 440 386 P_____________ SP052020 -14.7776 174.550 138 914 5 140 120 115 126 1002 210 17 10 115
2020348S14173 2021 50 SP MM YASA 2020-12-16 06:00:00 NR -15.0000 175.000 PROVISIONAL 386 356 O_____________ tcvitals SP052020 -15.0000 175.000 138 914 5 140 120 115 126 1002 205 14 8 115
2020348S14173 2021 50 SP MM YASA 2020-12-16 09:00:00 NR -15.1072 175.285 PROVISIONAL 356 327 P_____________ SP052020 -15.1072 175.285 138 914 5 140 120 117 126 1002 195 14 6 109
2020348S14173 2021 50 SP MM YASA 2020-12-16 12:00:00 NR -15.2000 175.600 PROVISIONAL 327 287 O_____________ tcvitals SP052020 -15.2000 175.600 138 915 5 140 120 120 126 1003 185 14 8 105
2020348S14173 2021 50 SP MM YASA 2020-12-16 15:00:00 NR -15.3277 176.120 PROVISIONAL 287 234 P_____________ SP052020 -15.3277 176.120 136 916 4 160 135 130 133 1002 185 14 11 106
2020348S14173 2021 50 SP MM YASA 2020-12-16 18:00:00 NR -15.5000 176.700 PROVISIONAL 234 178 O_____________ tcvitals SP052020 -15.5000 176.700 134 918 4 180 150 140 140 1001 185 14 11 111
2020348S14173 2021 50 SP MM YASA 2020-12-16 21:00:00 NR -15.7348 177.200 PROVISIONAL 178 115 P_____________ SP052020 -15.7348 177.200 131 921 4 172 147 145 142 1001 180 13 11 117
2020348S14173 2021 50 SP MM YASA 2020-12-17 00:00:00 NR -16.0000 177.700 PROVISIONAL 115 64 O_____________ tcvitals SP052020 -16.0000 177.700 128 925 4 165 145 150 145 1002 175 12 11 117
2020348S14173 2021 50 SP MM YASA 2020-12-17 03:00:00 NR -16.2348 178.228 PROVISIONAL 64 15 P_____________ SP052020 -16.2348 178.228 128 924 4 172 152 147 147 1001 185 8 12 115
2020348S14173 2021 50 SP MM YASA 2020-12-17 06:00:00 NR -16.5000 178.800 PROVISIONAL 15 0 O_____________ tcvitals SP052020 -16.5000 178.800 128 924 4 180 160 145 150 1001 195 5 14 116
2020348S14173 2021 50 SP MM YASA 2020-12-17 09:00:00 NR -16.8354 179.495 PROVISIONAL 0 0 P_____________ SP052020 -16.8354 179.495 121 933 4 177 165 150 147 1002 200 9 14 119
2020348S14173 2021 50 SP MM YASA 2020-12-17 12:00:00 NR -17.2000 180.100 PROVISIONAL 49 49 O_____________ tcvitals SP052020 -17.2000 -179.900 115 943 4 175 170 155 145 1004 205 14 11 130
2020348S14173 2021 50 SP MM YASA 2020-12-17 15:00:00 NR -17.5721 180.410 PROVISIONAL 104 104 P_____________ SP052020 -17.5721 -179.590 99 955 3 182 167 152 160 1004 205 14 9 146
2020348S14173 2021 50 SP MM YASA 2020-12-17 18:00:00 NR -17.9000 180.600 PROVISIONAL 143 143 O_____________ tcvitals SP052020 -17.9000 -179.400 84 967 2 190 165 150 175 1004 205 14 7 142
2020348S14173 2021 50 SP MM YASA 2020-12-17 21:00:00 NR -18.0924 180.843 PROVISIONAL 174 174 P_____________ SP052020 -18.0924 -179.157 79 971 1 155 165 152 132 1004 205 14 6 130
2020348S14173 2021 50 SP MM YASA 2020-12-18 00:00:00 NR -18.3000 181.100 PROVISIONAL 210 210 O_____________ tcvitals SP052020 -18.3000 -178.900 74 975 1 120 165 155 90 1004 205 14 8 138
2020348S14173 2021 50 SP MM YASA 2020-12-18 03:00:00 NR -18.6700 181.400 PROVISIONAL 265 265 P_____________ SP052020 -18.6700 -178.600 74 974 1 147 175 150 108 1004 200 14 10 145
2020348S14173 2021 50 SP MM YASA 2020-12-18 06:00:00 NR -19.1000 181.700 PROVISIONAL 320 320 O_____________ tcvitals SP052020 -19.1000 -178.300 74 974 1 175 185 145 126 1004 195 14 10 147
2020348S14173 2021 50 SP MM YASA 2020-12-18 09:00:00 NR -19.5450 181.995 PROVISIONAL 374 374 P_____________ SP052020 -19.5450 -178.005 72 975 1 175 185 145 126 1004 190 19 9 149
2020348S14173 2021 50 SP MM YASA 2020-12-18 12:00:00 NR -19.9000 182.200 PROVISIONAL 419 419 O_____________ tcvitals SP052020 -19.9000 -177.800 70 977 1 175 185 145 126 1005 185 25 5 150
2020348S14173 2021 50 SP MM YASA 2020-12-18 15:00:00 NR -19.9924 182.275 PROVISIONAL 433 424 P_____________ SP052020 -19.9924 -177.725 67 979 1 162 177 145 118 1005 185 25 2 172
2020348S14173 2021 50 SP MM YASA 2020-12-18 18:00:00 NR -20.1000 182.200 PROVISIONAL 430 425 O_____________ tcvitals SP052020 -20.1000 -177.800 64 981 1 150 170 145 110 1005 185 25 6 212
2020348S14173 2021 50 SP MM YASA 2020-12-18 21:00:00 NR -20.5127 181.928 PROVISIONAL 429 428 P_____________ SP052020 -20.5127 -178.072 57 985 0 138 182 155 102 1005 197 27 10 207
2020348S14173 2021 50 SP MM YASA 2020-12-19 00:00:00 NR -21.0000 181.700 PROVISIONAL 451 451 O_____________ tcvitals SP052020 -21.0000 -178.300 51 989 0 126 195 165 95 1005 210 30 9 188
2020348S14173 2021 50 SP MM YASA 2020-12-19 03:00:00 NR -21.3875 181.797 PROVISIONAL 491 491 P_____________ SP052020 -21.3875 -178.203 48 989 0 130 195 162 105 1004 212 30 8 158
2020348S14173 2021 50 SP MM YASA 2020-12-19 06:00:00 NR -21.7000 182.000 PROVISIONAL 530 530 O_____________ tcvitals SP052020 -21.7000 -178.000 45 990 0 135 195 160 115 1004 215 30 6 148
2020348S14173 2021 50 SP MM YASA 2020-12-19 09:00:00 NR -21.9000 182.137 PROVISIONAL 553 553 P_____________ SP052020 -21.9000 -177.863 48 990 0 132 172 135 75 1004 207 30 4 155
2020348S14173 2021 50 SP MM YASA 2020-12-19 12:00:00 NR -22.1000 182.200 PROVISIONAL 577 577 O_____________ tcvitals SP052020 -22.1000 -177.800 51 990 0 130 150 110 35 1005 200 30 5 178
2020348S14173 2021 50 SP MM YASA 2020-12-19 15:00:00 NR -22.4125 182.138 PROVISIONAL 597 597 P_____________ SP052020 -22.4125 -177.862 51 989 0 125 155 112 62 1005 200 35 7 195
2020348S14173 2021 50 SP MM YASA 2020-12-19 18:00:00 NR -22.8000 182.000 PROVISIONAL 627 O_____________ tcvitals SP052020 -22.8000 -178.000 51 988 0 120 160 115 90 1005 200 40 8 198

Digital Typhoon Data and Search

About IBTrACS Database

This database is a web-friendly format of International Best Track Archive for Climate Stewardship (IBTrACS), a global best track data archive curated by NOAA dating back to 1842.

Updated: 2021-10-19